Time;durP1;ratioP1;P1;durP2;ratioP2;P2;SDS_P1;SDS_P2;PMS_P1;PMS_P2;Temp;Humidity;BMP_temperature;BMP_pressure;BME280_temperature;BME280_humidity;BME280_pressure;Samples;Min_cycle;Max_cycle;Signal;HPM_P1;HPM_P2
2024/01/09 00:00:35;;;;;;;;;;;;;;;-5.34;67.92;103278.50;5048544;28;20360;-73
2024/01/09 00:03:00;;;;;;;;;;;;;;;-5.33;67.26;103277.75;5076156;28;20438;-73
2024/01/09 00:05:25;;;;;;;;;;;;;;;-5.30;67.63;103274.56;5058750;28;19920;-74
2024/01/09 00:07:51;;;;;;;;;;;;;;;-5.34;67.26;103265.72;5045127;28;19925;-72
2024/01/09 00:12:45;;;;;;;;;;;;;;;-5.41;67.97;103268.47;5071869;28;19939;-71
2024/01/09 00:15:11;;;;;;;;;;;;;;;-5.42;67.45;103275.22;5052934;28;19921;-75
2024/01/09 00:17:36;;;;;;;;;;;;;;;-5.44;68.19;103265.63;5036073;28;20012;-73
2024/01/09 00:22:36;;;;;;;;;;;;;;;-5.50;68.46;103262.50;5345239;22;19925;-74
2024/01/09 00:25:02;;;;;;;;;;;;;;;-5.54;68.66;103266.44;5025007;28;20031;-74
2024/01/09 00:27:27;;;;;;;;;;;;;;;-5.55;68.93;103273.97;5229362;22;20027;-74
2024/01/09 00:29:52;;;;;;;;;;;;;;;-5.48;68.38;103266.09;5161738;22;19924;-75
2024/01/09 00:32:18;;;;;;;;;;;;;;;-5.47;68.78;103267.91;5061792;28;19932;-77
2024/01/09 00:34:43;;;;;;;;;;;;;;;-5.51;68.65;103266.72;5075973;28;19974;-78
2024/01/09 00:37:08;;;;;;;;;;;;;;;-5.48;68.16;103273.78;5058875;28;20282;-75
2024/01/09 00:39:34;;;;;;;;;;;;;;;-5.54;68.32;103263.88;5042387;28;20280;-74
2024/01/09 00:41:59;;;;;;;;;;;;;;;-5.61;68.63;103264.94;5055804;28;19920;-75
2024/01/09 00:44:24;;;;;;;;;;;;;;;-5.66;69.46;103263.66;5069065;28;19928;-75
2024/01/09 00:46:50;;;;;;;;;;;;;;;-5.64;69.65;103268.91;5068708;28;19928;-77
2024/01/09 00:49:15;;;;;;;;;;;;;;;-5.65;69.01;103261.97;5026675;28;19963;-73
2024/01/09 00:51:41;;;;;;;;;;;;;;;-5.68;69.73;103270.25;5036007;28;20406;-81
2024/01/09 00:54:07;;;;;;;;;;;;;;;-5.66;69.44;103265.28;5052568;28;19920;-77
2024/01/09 00:56:32;;;;;;;;;;;;;;;-5.64;68.92;103269.78;5054048;28;19939;-76
2024/01/09 00:58:58;;;;;;;;;;;;;;;-5.60;68.79;103270.97;5042822;28;20398;-78
2024/01/09 01:01:23;;;;;;;;;;;;;;;-5.59;69.59;103258.34;5029820;28;19927;-72
2024/01/09 01:03:49;;;;;;;;;;;;;;;-5.73;69.30;103251.06;5042635;28;20003;-74
2024/01/09 01:06:17;;;;;;;;;;;;;;;-5.73;69.19;103258.72;5046672;28;20019;-73
2024/01/09 01:08:42;;;;;;;;;;;;;;;-5.70;69.73;103261.56;5055901;28;20011;-73
2024/01/09 01:11:08;;;;;;;;;;;;;;;-5.81;70.42;103254.53;5027686;28;20023;-72
2024/01/09 01:13:33;;;;;;;;;;;;;;;-5.83;70.50;103267.16;5050274;28;19917;-73
2024/01/09 01:15:59;;;;;;;;;;;;;;;-5.81;69.76;103260.53;5053170;28;19928;-72
2024/01/09 01:18:24;;;;;;;;;;;;;;;-5.81;69.99;103255.44;5042981;28;20406;-73
2024/01/09 01:20:50;;;;;;;;;;;;;;;-5.71;69.87;103269.97;5054058;28;19924;-76
2024/01/09 01:23:15;;;;;;;;;;;;;;;-5.71;69.72;103261.41;5054160;28;19929;-73
2024/01/09 01:25:41;;;;;;;;;;;;;;;-5.83;69.29;103262.06;5054812;28;19931;-72
2024/01/09 01:28:06;;;;;;;;;;;;;;;-5.81;70.11;103264.75;5056286;28;19920;-72
2024/01/09 01:30:31;;;;;;;;;;;;;;;-5.87;69.81;103259.97;5049354;28;20269;-73
2024/01/09 01:32:57;;;;;;;;;;;;;;;-5.94;70.31;103255.94;5066889;28;20335;-73
2024/01/09 01:35:22;;;;;;;;;;;;;;;-5.92;70.58;103262.09;5034933;28;19974;-72
2024/01/09 01:37:47;;;;;;;;;;;;;;;-5.88;70.02;103272.59;5047102;28;20372;-72
2024/01/09 01:40:13;;;;;;;;;;;;;;;-5.92;69.81;103277.44;5052462;28;19920;-74
2024/01/09 01:42:38;;;;;;;;;;;;;;;-5.93;70.10;103279.84;5049806;28;19983;-73
2024/01/09 01:45:13;;;;;;;;;;;;;;;-5.89;69.66;103270.78;5033348;28;19921;-72
2024/01/09 01:47:38;;;;;;;;;;;;;;;-5.96;70.84;103260.00;5047865;28;20269;-71
2024/01/09 01:50:05;;;;;;;;;;;;;;;-5.98;70.71;103274.31;5076976;28;19966;-73
2024/01/09 01:52:30;;;;;;;;;;;;;;;-5.88;70.48;103265.81;5036006;28;19924;-73
2024/01/09 01:54:56;;;;;;;;;;;;;;;-5.94;69.61;103268.69;5034541;28;19925;-72
2024/01/09 01:57:21;;;;;;;;;;;;;;;-5.92;70.89;103267.22;5040575;28;19921;-73
2024/01/09 01:59:46;;;;;;;;;;;;;;;-5.97;70.34;103263.31;5046653;28;19933;-73
2024/01/09 02:02:13;;;;;;;;;;;;;;;-6.05;70.66;103266.81;5044385;28;19927;-72
2024/01/09 02:04:40;;;;;;;;;;;;;;;-6.05;70.28;103266.81;5043351;28;19927;-73
2024/01/09 02:07:06;;;;;;;;;;;;;;;-6.07;70.50;103265.78;5031617;28;20433;-72
2024/01/09 02:09:32;;;;;;;;;;;;;;;-6.11;71.01;103258.59;5052781;28;20054;-73
2024/01/09 02:11:58;;;;;;;;;;;;;;;-6.00;70.59;103262.16;5041538;28;19917;-72
2024/01/09 02:14:23;;;;;;;;;;;;;;;-6.02;70.29;103267.13;5045477;28;19928;-76
2024/01/09 02:16:49;;;;;;;;;;;;;;;-6.06;70.90;103265.03;5051144;28;20280;-73
2024/01/09 02:19:14;;;;;;;;;;;;;;;-6.07;71.49;103263.22;5034139;28;19939;-78
2024/01/09 02:21:41;;;;;;;;;;;;;;;-6.22;72.21;103265.25;5045838;28;20015;-83
2024/01/09 02:24:06;;;;;;;;;;;;;;;-6.21;71.18;103251.69;5048682;28;20256;-78
2024/01/09 02:26:34;;;;;;;;;;;;;;;-6.14;71.42;103258.31;5032238;28;19928;-77
2024/01/09 02:29:03;;;;;;;;;;;;;;;-6.25;71.71;103254.72;5051878;28;20554;-78
2024/01/09 02:31:30;;;;;;;;;;;;;;;-6.28;71.88;103251.88;5047029;28;19928;-78
2024/01/09 02:33:57;;;;;;;;;;;;;;;-6.28;72.90;103247.69;5067936;28;20380;-79
2024/01/09 02:36:23;;;;;;;;;;;;;;;-6.27;72.12;103257.13;5045140;28;19963;-79
2024/01/09 02:38:48;;;;;;;;;;;;;;;-6.27;72.77;103246.03;5041030;28;19928;-80
2024/01/09 02:41:13;;;;;;;;;;;;;;;-6.22;72.90;103252.47;5032281;28;19967;-77
2024/01/09 02:43:39;;;;;;;;;;;;;;;-6.28;72.30;103251.88;5033467;28;19940;-75
2024/01/09 02:46:04;;;;;;;;;;;;;;;-6.25;72.54;103248.72;5060666;28;19916;-81
2024/01/09 02:48:32;;;;;;;;;;;;;;;-6.25;72.90;103241.06;5032156;28;20020;-73
2024/01/09 02:50:57;;;;;;;;;;;;;;;-6.15;71.93;103239.53;5046497;28;19921;-76
2024/01/09 02:53:23;;;;;;;;;;;;;;;-6.16;72.60;103249.56;5050522;28;19920;-79
2024/01/09 02:55:48;;;;;;;;;;;;;;;-6.22;71.56;103237.16;5047148;28;19920;-80
2024/01/09 02:58:13;;;;;;;;;;;;;;;-6.22;72.86;103249.00;5033997;28;19971;-76
2024/01/09 03:00:39;;;;;;;;;;;;;;;-6.30;72.90;103246.63;5034694;28;19928;-79
2024/01/09 03:03:04;;;;;;;;;;;;;;;-6.31;72.74;103242.25;5032196;28;20331;-80
2024/01/09 03:05:31;;;;;;;;;;;;;;;-6.35;72.97;103235.09;5044622;28;19972;-79
2024/01/09 03:07:56;;;;;;;;;;;;;;;-6.36;73.46;103235.84;5047975;28;20325;-80
2024/01/09 03:10:21;;;;;;;;;;;;;;;-6.37;73.19;103228.94;5043290;28;19967;-79
2024/01/09 03:12:47;;;;;;;;;;;;;;;-6.32;73.49;103225.19;5042126;28;19929;-80
2024/01/09 03:15:12;;;;;;;;;;;;;;;-6.30;72.79;103238.09;5033512;28;19932;-78
2024/01/09 03:17:37;;;;;;;;;;;;;;;-6.34;73.02;103229.22;5044360;28;19921;-76
2024/01/09 03:20:03;;;;;;;;;;;;;;;-6.36;74.28;103233.28;5029868;28;19971;-77
2024/01/09 03:22:28;;;;;;;;;;;;;;;-6.47;73.70;103226.25;5045703;28;19916;-77
2024/01/09 03:24:54;;;;;;;;;;;;;;;-6.43;73.65;103230.91;5044653;28;19921;-77
2024/01/09 03:27:19;;;;;;;;;;;;;;;-6.47;73.62;103231.34;5033175;28;19927;-81
2024/01/09 03:29:44;;;;;;;;;;;;;;;-6.40;73.91;103240.50;5045891;28;19921;-83
2024/01/09 03:32:10;;;;;;;;;;;;;;;-6.38;74.46;103236.44;5046792;28;20003;-77
2024/01/09 03:34:35;;;;;;;;;;;;;;;-6.42;74.08;103229.25;5034621;28;19925;-76
2024/01/09 03:37:00;;;;;;;;;;;;;;;-6.27;74.06;103234.16;5038835;28;19921;-80
2024/01/09 03:39:26;;;;;;;;;;;;;;;-6.27;73.11;103240.91;5062919;28;19936;-78
2024/01/09 03:41:53;;;;;;;;;;;;;;;-6.34;73.93;103235.97;5044969;28;19917;-75
2024/01/09 03:44:19;;;;;;;;;;;;;;;-6.34;73.99;103238.53;5043665;28;19998;-76
2024/01/09 03:46:44;;;;;;;;;;;;;;;-6.39;74.53;103235.56;5032194;28;19956;-76
2024/01/09 03:49:09;;;;;;;;;;;;;;;-6.43;74.28;103227.47;5048725;28;19931;-77
2024/01/09 03:51:35;;;;;;;;;;;;;;;-6.46;74.05;103228.06;5045528;28;20286;-77
2024/01/09 03:54:00;;;;;;;;;;;;;;;-6.54;74.04;103234.06;5049300;28;19936;-76
2024/01/09 03:56:25;;;;;;;;;;;;;;;-6.48;74.37;103240.69;5046649;28;20357;-79
2024/01/09 03:58:52;;;;;;;;;;;;;;;-6.42;74.59;103240.38;5033006;28;19971;-75
2024/01/09 04:01:17;;;;;;;;;;;;;;;-6.42;74.86;103240.38;5042244;28;20015;-76
2024/01/09 04:03:42;;;;;;;;;;;;;;;-6.39;74.70;103230.44;5042968;28;20445;-82
2024/01/09 04:06:08;;;;;;;;;;;;;;;-6.52;74.94;103230.00;5042472;28;19921;-80
2024/01/09 04:08:33;;;;;;;;;;;;;;;-6.53;75.15;103228.22;5046265;28;19917;-78
2024/01/09 04:10:58;;;;;;;;;;;;;;;-6.51;75.11;103229.25;5042847;28;19960;-80
2024/01/09 04:13:24;;;;;;;;;;;;;;;-6.49;75.02;103225.22;5035963;28;19960;-77
2024/01/09 04:15:50;;;;;;;;;;;;;;;-6.48;75.15;103230.47;5043399;28;20443;-79
2024/01/09 04:18:15;;;;;;;;;;;;;;;-6.52;74.84;103232.56;5033608;28;19929;-80
2024/01/09 04:20:41;;;;;;;;;;;;;;;-6.53;74.63;103233.34;5032874;28;19929;-78
2024/01/09 04:23:08;;;;;;;;;;;;;;;-6.54;75.46;103228.97;5045799;28;20003;-78
2024/01/09 04:25:33;;;;;;;;;;;;;;;-6.50;74.94;103237.06;5050118;28;19924;-77
2024/01/09 04:27:58;;;;;;;;;;;;;;;-6.57;75.53;103228.69;5036198;28;20379;-78
2024/01/09 04:30:24;;;;;;;;;;;;;;;-6.62;74.71;103234.25;5054216;28;19925;-80
2024/01/09 04:32:50;;;;;;;;;;;;;;;-6.57;75.02;103238.88;5053539;28;19921;-75
2024/01/09 04:35:15;;;;;;;;;;;;;;;-6.46;75.48;103233.16;5032889;28;19921;-77
2024/01/09 04:37:40;;;;;;;;;;;;;;;-6.52;74.43;103232.56;5042928;28;19920;-78
2024/01/09 04:40:06;;;;;;;;;;;;;;;-6.56;75.29;103226.28;5053049;28;19923;-80
2024/01/09 04:42:31;;;;;;;;;;;;;;;-6.56;74.93;103233.03;5047395;28;19921;-76
2024/01/09 04:44:57;;;;;;;;;;;;;;;-6.62;75.81;103225.69;5037109;28;20002;-76
2024/01/09 04:47:22;;;;;;;;;;;;;;;-6.64;75.55;103228.09;5054193;28;19973;-80
2024/01/09 04:49:48;;;;;;;;;;;;;;;-6.69;75.35;103228.41;5053393;28;19928;-78
2024/01/09 04:52:14;;;;;;;;;;;;;;;-6.67;75.95;103232.00;5045989;28;19921;-79
2024/01/09 04:54:39;;;;;;;;;;;;;;;-6.61;75.22;103232.56;5048951;28;19965;-71
2024/01/09 04:57:05;;;;;;;;;;;;;;;-6.66;74.65;103223.59;5052819;28;19929;-72
2024/01/09 04:59:30;;;;;;;;;;;;;;;-6.64;75.24;103233.19;5047190;28;19928;-73
2024/01/09 05:01:56;;;;;;;;;;;;;;;-6.55;75.23;103217.88;5066904;28;19921;-74
2024/01/09 05:04:21;;;;;;;;;;;;;;;-6.65;75.86;103225.38;5041454;28;19960;-73
2024/01/09 05:06:46;;;;;;;;;;;;;;;-6.77;75.59;103226.75;5062020;28;19921;-73
2024/01/09 05:09:12;;;;;;;;;;;;;;;-6.57;75.37;103223.59;5032958;28;19929;-73
2024/01/09 05:11:37;;;;;;;;;;;;;;;-6.63;76.04;103227.31;5060028;28;19975;-74
2024/01/09 05:14:02;;;;;;;;;;;;;;;-6.71;75.20;103222.25;5052876;28;20233;-74
2024/01/09 05:16:28;;;;;;;;;;;;;;;-6.68;75.59;103220.91;5025026;28;19930;-73
2024/01/09 05:18:53;;;;;;;;;;;;;;;-6.71;75.61;103219.69;5044141;28;20123;-73
2024/01/09 05:21:19;;;;;;;;;;;;;;;-6.73;76.10;103229.75;5048235;28;19916;-73
2024/01/09 05:23:44;;;;;;;;;;;;;;;-6.70;75.53;103229.16;5045359;28;19920;-73
2024/01/09 05:26:09;;;;;;;;;;;;;;;-6.75;76.11;103222.69;5044711;28;19929;-73
2024/01/09 05:28:35;;;;;;;;;;;;;;;-6.79;75.97;103221.50;5029304;28;20316;-73
2024/01/09 05:31:01;;;;;;;;;;;;;;;-6.79;76.08;103221.50;5033666;28;20296;-72
2024/01/09 05:33:26;;;;;;;;;;;;;;;-6.81;76.34;103233.19;5048603;28;20035;-73
2024/01/09 05:35:54;;;;;;;;;;;;;;;-6.83;75.73;103227.06;5044831;28;20070;-73
2024/01/09 05:38:19;;;;;;;;;;;;;;;-6.85;76.59;103229.47;5051755;28;20357;-73
2024/01/09 05:40:48;;;;;;;;;;;;;;;-6.85;76.68;103221.81;5046322;28;19928;-73
2024/01/09 05:43:13;;;;;;;;;;;;;;;-6.83;76.42;103229.59;5047022;28;19920;-74
2024/01/09 05:45:38;;;;;;;;;;;;;;;-6.94;77.08;103223.44;5041384;28;20058;-73
2024/01/09 05:48:04;;;;;;;;;;;;;;;-6.96;77.18;103228.41;5056034;28;20329;-73
2024/01/09 05:50:32;;;;;;;;;;;;;;;-7.01;76.99;103216.88;5033261;28;19939;-73
2024/01/09 05:52:57;;;;;;;;;;;;;;;-6.90;77.08;103217.00;5049266;28;20031;-73
2024/01/09 05:55:22;;;;;;;;;;;;;;;-6.90;76.60;103222.13;5044712;28;20070;-73
2024/01/09 05:57:48;;;;;;;;;;;;;;;-6.89;77.30;103218.81;5038863;28;20347;-73
2024/01/09 06:00:14;;;;;;;;;;;;;;;-6.93;77.01;103221.81;5053847;28;19928;-73
2024/01/09 06:02:40;;;;;;;;;;;;;;;-6.93;76.59;103219.28;5044100;28;20505;-71
2024/01/09 06:05:05;;;;;;;;;;;;;;;-7.01;76.83;103211.78;5051990;28;19917;-73
2024/01/09 06:07:31;;;;;;;;;;;;;;;-6.99;77.32;103219.56;5034326;28;19921;-73
2024/01/09 06:09:56;;;;;;;;;;;;;;;-6.93;77.55;103216.72;5049782;28;19978;-73
2024/01/09 06:12:21;;;;;;;;;;;;;;;-6.89;77.27;103223.94;5033079;28;19929;-72
2024/01/09 06:14:47;;;;;;;;;;;;;;;-7.00;77.25;103218.66;5035227;28;19999;-73
2024/01/09 06:17:14;;;;;;;;;;;;;;;-7.00;77.37;103215.22;5051713;28;19927;-72
2024/01/09 06:19:39;;;;;;;;;;;;;;;-7.02;77.73;103222.72;5049873;28;19971;-73
2024/01/09 06:22:04;;;;;;;;;;;;;;;-6.99;77.89;103219.56;5050803;28;19932;-72
2024/01/09 06:24:30;;;;;;;;;;;;;;;-6.98;77.80;103219.72;5066482;28;19929;-72
2024/01/09 06:26:55;;;;;;;;;;;;;;;-6.99;77.84;103220.47;5065922;28;19928;-73
2024/01/09 06:29:21;;;;;;;;;;;;;;;-7.03;77.40;103220.91;5027556;28;20339;-73
2024/01/09 06:31:46;;;;;;;;;;;;;;;-6.96;78.11;103228.41;5043773;28;19933;-71
2024/01/09 06:34:12;;;;;;;;;;;;;;;-6.92;77.40;103218.50;5062891;28;19925;-71
2024/01/09 06:36:37;;;;;;;;;;;;;;;-7.03;78.28;103225.13;5050132;28;19939;-72
2024/01/09 06:39:02;;;;;;;;;;;;;;;-6.93;78.52;103237.13;5035419;28;19929;-70
2024/01/09 06:41:28;;;;;;;;;;;;;;;-6.88;78.30;103243.53;5034481;28;19925;-72
2024/01/09 06:43:53;;;;;;;;;;;;;;;-6.93;77.69;103232.03;5031973;28;19951;-72
2024/01/09 06:46:18;;;;;;;;;;;;;;;-7.04;78.31;103246.25;5034388;28;20079;-73
2024/01/09 06:48:44;;;;;;;;;;;;;;;-7.12;78.80;103245.50;5050962;28;19928;-72
2024/01/09 06:51:11;;;;;;;;;;;;;;;-7.08;78.76;103250.16;5056748;28;19924;-72
2024/01/09 06:53:36;;;;;;;;;;;;;;;-7.13;78.38;103249.69;5051223;28;20365;-72
2024/01/09 06:56:01;;;;;;;;;;;;;;;-7.11;78.59;103254.03;5040354;28;19927;-73
2024/01/09 06:58:27;;;;;;;;;;;;;;;-7.11;78.70;103257.50;5035014;28;20300;-74
2024/01/09 07:00:52;;;;;;;;;;;;;;;-7.09;78.93;103255.09;5051806;28;20291;-73
2024/01/09 07:03:17;;;;;;;;;;;;;;;-7.05;78.92;103258.09;5035320;28;19994;-73
2024/01/09 07:05:43;;;;;;;;;;;;;;;-7.11;79.07;103252.41;5034364;28;20454;-71
2024/01/09 07:08:08;;;;;;;;;;;;;;;-7.11;78.84;103254.03;5051610;28;19956;-73
2024/01/09 07:10:36;;;;;;;;;;;;;;;-7.10;78.92;103253.28;5034839;28;19964;-73
2024/01/09 07:13:02;;;;;;;;;;;;;;;-6.99;78.59;103263.78;5034564;28;19927;-71
2024/01/09 07:15:27;;;;;;;;;;;;;;;-7.05;78.58;103254.63;5051777;28;19912;-73
2024/01/09 07:17:52;;;;;;;;;;;;;;;-7.08;78.32;103261.97;5034362;28;19955;-73
2024/01/09 07:20:18;;;;;;;;;;;;;;;-7.04;78.60;103253.88;5034209;28;19962;-74
2024/01/09 07:22:44;;;;;;;;;;;;;;;-7.13;78.74;103257.31;5033849;28;19956;-73
2024/01/09 07:25:10;;;;;;;;;;;;;;;-6.97;78.87;103264.88;5049828;28;19931;-72
2024/01/09 07:27:35;;;;;;;;;;;;;;;-7.08;78.87;103267.06;5050291;28;19921;-73
2024/01/09 07:30:01;;;;;;;;;;;;;;;-7.06;78.49;103258.84;5051904;28;19982;-73
2024/01/09 07:32:26;;;;;;;;;;;;;;;-7.05;79.12;103265.75;5034203;28;19917;-72
2024/01/09 07:34:51;;;;;;;;;;;;;;;-6.97;78.30;103271.59;5060351;28;19959;-72
2024/01/09 07:37:17;;;;;;;;;;;;;;;-6.84;77.44;103271.16;5053657;28;19999;-72
2024/01/09 07:39:42;;;;;;;;;;;;;;;-6.90;77.90;103268.91;5037053;28;19963;-72
2024/01/09 07:42:13;;;;;;;;;;;;;;;-6.87;78.32;103273.41;5036799;28;20386;-71
2024/01/09 07:44:38;;;;;;;;;;;;;;;-7.00;78.76;103272.19;5037111;28;19927;-72
2024/01/09 07:47:04;;;;;;;;;;;;;;;-6.86;77.93;103280.31;5051680;28;19924;-73
2024/01/09 07:49:29;;;;;;;;;;;;;;;-6.91;78.44;103278.94;5036466;28;20258;-71
2024/01/09 07:51:54;;;;;;;;;;;;;;;-6.93;78.33;103290.66;5036836;28;19963;-72
2024/01/09 07:54:20;;;;;;;;;;;;;;;-7.03;78.65;103287.19;5070583;28;19925;-72
2024/01/09 07:56:46;;;;;;;;;;;;;;;-6.95;78.96;103290.50;5053129;28;20019;-72
2024/01/09 07:59:12;;;;;;;;;;;;;;;-7.00;79.08;103301.88;5052972;28;19920;-78
2024/01/09 08:01:37;;;;;;;;;;;;;;;-7.01;78.86;103290.78;5037097;28;19916;-77
2024/01/09 08:04:04;;;;;;;;;;;;;;;-7.02;78.95;103296.63;5070141;28;19931;-75
2024/01/09 08:06:29;;;;;;;;;;;;;;;-6.91;79.01;103291.69;5036661;28;19917;-72
2024/01/09 08:08:54;;;;;;;;;;;;;;;-6.82;77.90;103301.16;5037115;28;19944;-76
2024/01/09 08:11:19;;;;;;;;;;;;;;;-6.86;78.07;103296.50;5035801;28;19920;-75
2024/01/09 08:13:47;;;;;;;;;;;;;;;-6.90;77.83;103294.38;5053638;28;19923;-74
2024/01/09 08:16:12;;;;;;;;;;;;;;;-6.86;78.05;103313.44;5036981;28;19923;-75
2024/01/09 08:18:40;;;;;;;;;;;;;;;-6.86;77.87;103298.16;5070367;28;19921;-76
2024/01/09 08:21:06;;;;;;;;;;;;;;;-6.90;78.36;103299.47;5068778;28;20018;-77
2024/01/09 08:23:34;;;;;;;;;;;;;;;-6.75;77.87;103317.03;5053848;28;20046;-74
2024/01/09 08:25:59;;;;;;;;;;;;;;;-6.75;77.46;103306.84;5052223;28;20439;-74
2024/01/09 08:28:25;;;;;;;;;;;;;;;-6.72;77.25;103302.03;5053659;28;20058;-72
2024/01/09 08:30:50;;;;;;;;;;;;;;;-6.71;77.07;103299.66;5036395;28;19991;-73
2024/01/09 08:33:15;;;;;;;;;;;;;;;-6.72;77.71;103310.59;5036352;28;19920;-72
2024/01/09 08:35:41;;;;;;;;;;;;;;;-6.74;76.96;103299.34;5042742;28;19982;-71
2024/01/09 08:38:06;;;;;;;;;;;;;;;-6.66;77.15;103297.56;5052797;28;20014;-72
2024/01/09 08:40:31;;;;;;;;;;;;;;;-6.60;76.73;103310.00;5052055;28;19920;-71
2024/01/09 08:42:57;;;;;;;;;;;;;;;-6.65;77.07;103300.25;5067425;28;19928;-74
2024/01/09 08:45:24;;;;;;;;;;;;;;;-6.47;76.40;103307.91;5045308;28;19932;-71
2024/01/09 08:47:49;;;;;;;;;;;;;;;-6.29;75.29;103325.00;5035777;28;20279;-76
2024/01/09 08:50:15;;;;;;;;;;;;;;;-5.14;72.51;103307.53;5052133;28;19920;-78
2024/01/09 08:52:40;;;;;;;;;;;;;;;-3.46;66.46;103300.94;5047761;28;20007;-75
2024/01/09 08:55:06;;;;;;;;;;;;;;;-2.20;61.72;103310.44;5060730;28;19960;-74
2024/01/09 08:57:31;;;;;;;;;;;;;;;-1.10;58.64;103305.28;5047538;28;19916;-73
2024/01/09 08:59:57;;;;;;;;;;;;;;;-0.40;56.54;103306.16;5072736;28;19929;-71
2024/01/09 09:02:23;;;;;;;;;;;;;;;0.46;54.51;103305.28;5045812;28;19928;-73
2024/01/09 09:04:48;;;;;;;;;;;;;;;-0.57;54.37;103306.59;5039057;28;19921;-72
2024/01/09 09:07:14;;;;;;;;;;;;;;;-1.70;59.10;103310.06;5068494;28;19921;-73
2024/01/09 09:09:40;;;;;;;;;;;;;;;-2.63;61.73;103315.53;5032652;28;20095;-71
2024/01/09 09:12:05;;;;;;;;;;;;;;;-3.18;62.53;103317.00;5067917;28;19988;-71
2024/01/09 09:14:30;;;;;;;;;;;;;;;-3.56;65.08;103324.88;5036841;28;19917;-73
2024/01/09 09:16:57;;;;;;;;;;;;;;;-3.91;66.59;103323.63;5044100;28;20442;-72
2024/01/09 09:19:23;;;;;;;;;;;;;;;-4.03;67.29;103326.03;5054221;28;19969;-72
2024/01/09 09:21:53;;;;;;;;;;;;;;;-4.24;67.97;103319.94;5055814;28;20003;-73
2024/01/09 09:24:18;;;;;;;;;;;;;;;-4.43;68.12;103313.94;5055455;28;19917;-73
2024/01/09 09:26:44;;;;;;;;;;;;;;;-4.46;69.45;103319.66;5071950;28;19923;-72
2024/01/09 09:29:09;;;;;;;;;;;;;;;-4.36;68.07;103304.34;5055331;28;19970;-73
2024/01/09 09:31:35;;;;;;;;;;;;;;;-4.49;67.87;103331.31;5053075;28;19928;-72
2024/01/09 09:34:00;;;;;;;;;;;;;;;-4.55;68.85;103317.19;5034554;28;20012;-73
2024/01/09 09:36:26;;;;;;;;;;;;;;;-4.19;68.81;103318.66;5064281;28;19966;-72
2024/01/09 09:38:55;;;;;;;;;;;;;;;-2.19;63.20;103310.53;5053705;28;19925;-71
2024/01/09 09:41:20;;;;;;;;;;;;;;;-0.21;57.92;103315.22;5045744;28;20372;-74
2024/01/09 09:43:50;;;;;;;;;;;;;;;1.26;53.03;103315.84;5038092;28;19921;-74
2024/01/09 09:46:19;;;;;;;;;;;;;;;2.24;50.97;103312.59;5053835;28;19920;-73
2024/01/09 09:48:44;;;;;;;;;;;;;;;3.04;47.21;103339.88;5054952;28;19924;-72
2024/01/09 09:51:09;;;;;;;;;;;;;;;3.38;45.96;103316.84;5027399;22;1901439;-74
2024/01/09 09:53:35;;;;;;;;;;;;;;;3.90;43.71;103315.41;5052295;28;19924;-73
2024/01/09 09:56:01;;;;;;;;;;;;;;;4.62;45.45;103308.91;5073684;28;19917;-74
2024/01/09 09:58:27;;;;;;;;;;;;;;;4.93;42.90;103312.19;5071911;28;20376;-73
2024/01/09 10:00:56;;;;;;;;;;;;;;;5.63;42.70;103311.31;5058940;28;19920;-74
2024/01/09 10:03:22;;;;;;;;;;;;;;;6.00;40.81;103311.38;5051956;28;20560;-73
2024/01/09 10:05:49;;;;;;;;;;;;;;;6.00;41.83;103308.78;5069260;28;20295;-77
2024/01/09 10:08:15;;;;;;;;;;;;;;;6.23;40.78;103303.75;5057394;28;19920;-76
2024/01/09 10:10:40;;;;;;;;;;;;;;;6.19;39.91;103302.75;5073446;28;20019;-76
2024/01/09 10:13:06;;;;;;;;;;;;;;;6.16;39.84;103300.00;5054921;28;20365;-76
2024/01/09 10:15:31;;;;;;;;;;;;;;;6.78;40.79;103294.94;5084970;28;19923;-78
2024/01/09 10:17:58;;;;;;;;;;;;;;;7.26;40.29;103287.38;5177948;22;19924;-74
2024/01/09 10:20:27;;;;;;;;;;;;;;;7.44;37.21;103296.78;5063639;28;19921;-74
2024/01/09 10:22:54;;;;;;;;;;;;;;;7.11;38.82;103284.13;5060490;28;19912;-75
2024/01/09 10:25:20;;;;;;;;;;;;;;;7.34;37.98;103284.19;5069529;28;19947;-75
2024/01/09 10:27:46;;;;;;;;;;;;;;;6.48;38.56;103284.94;5058311;28;20437;-72
2024/01/09 10:30:12;;;;;;;;;;;;;;;5.88;39.83;103288.25;5059111;28;19916;-73
2024/01/09 10:32:39;;;;;;;;;;;;;;;5.46;40.39;103281.88;5058998;28;19920;-74
2024/01/09 10:35:05;;;;;;;;;;;;;;;5.96;40.20;103278.22;5075594;28;20272;-74
2024/01/09 10:37:31;;;;;;;;;;;;;;;6.50;37.68;103285.00;5045635;28;19948;-74
2024/01/09 10:39:56;;;;;;;;;;;;;;;6.59;38.75;103275.88;5068313;28;19985;-76
2024/01/09 10:42:21;;;;;;;;;;;;;;;6.72;37.45;103277.31;5057950;28;19961;-78
2024/01/09 10:44:47;;;;;;;;;;;;;;;7.16;36.51;103264.34;5061122;28;19920;-76
2024/01/09 10:47:14;;;;;;;;;;;;;;;7.38;37.74;103257.41;5071664;28;19970;-75
2024/01/09 10:49:42;;;;;;;;;;;;;;;8.06;37.61;103258.31;5075575;28;19917;-75
2024/01/09 10:52:17;;;;;;;;;;;;;;;8.52;36.61;103264.38;5051236;28;20022;-75
2024/01/09 10:54:43;;;;;;;;;;;;;;;8.88;35.58;103253.41;5047267;28;20439;-75
2024/01/09 10:57:13;;;;;;;;;;;;;;;8.95;35.57;103252.78;5055121;28;20011;-75
2024/01/09 10:59:42;;;;;;;;;;;;;;;8.61;35.02;103259.44;5055253;28;20630;-75
2024/01/09 11:02:25;;;;;;;;;;;;;;;8.35;32.81;103249.75;5053618;28;19916;-77
2024/01/09 11:04:51;;;;;;;;;;;;;;;8.45;36.27;103251.91;5038981;28;19970;-76
2024/01/09 11:07:17;;;;;;;;;;;;;;;8.56;34.84;103239.22;5057941;28;20435;-76
2024/01/09 11:09:49;;;;;;;;;;;;;;;9.06;35.24;103239.16;5038082;28;19920;-76
2024/01/09 11:12:20;;;;;;;;;;;;;;;9.19;35.00;103238.72;5042040;28;19928;-75
2024/01/09 11:14:48;;;;;;;;;;;;;;;8.74;33.28;103236.38;5044179;28;20391;-75
2024/01/09 11:17:15;;;;;;;;;;;;;;;8.06;34.82;103236.50;5060657;28;19974;-75
2024/01/09 11:19:41;;;;;;;;;;;;;;;7.75;34.89;103238.88;5077431;28;19920;-77
2024/01/09 11:22:15;;;;;;;;;;;;;;;7.83;36.70;103233.97;5039495;28;20441;-76
2024/01/09 11:24:41;;;;;;;;;;;;;;;8.66;33.42;103209.94;5049199;28;19974;-75
2024/01/09 11:27:11;;;;;;;;;;;;;;;8.87;33.78;103214.13;5044294;28;20022;-77
2024/01/09 11:29:49;;;;;;;;;;;;;;;9.31;34.03;103223.44;5048706;28;19920;-75
2024/01/09 11:32:17;;;;;;;;;;;;;;;9.10;30.06;103228.84;5059658;28;19916;-77
2024/01/09 11:34:46;;;;;;;;;;;;;;;8.76;32.35;103216.38;5062061;28;19961;-75
2024/01/09 11:37:12;;;;;;;;;;;;;;;8.40;33.96;103207.28;5043761;28;19921;-74
2024/01/09 11:39:38;;;;;;;;;;;;;;;7.90;32.94;103207.25;5046148;28;19939;-78
2024/01/09 11:42:05;;;;;;;;;;;;;;;7.21;35.38;103202.88;5037091;28;19916;-76
2024/01/09 11:44:30;;;;;;;;;;;;;;;7.24;34.88;103205.59;5037758;28;19931;-75
2024/01/09 11:46:55;;;;;;;;;;;;;;;7.41;35.51;103198.44;5050551;28;19928;-75
2024/01/09 11:49:21;;;;;;;;;;;;;;;7.41;33.53;103208.88;5058837;28;19916;-76
2024/01/09 11:51:49;;;;;;;;;;;;;;;7.00;33.60;103204.59;5039789;28;19925;-74
2024/01/09 11:54:14;;;;;;;;;;;;;;;6.81;33.31;103190.81;5063762;28;19939;-72
2024/01/09 11:56:40;;;;;;;;;;;;;;;6.46;33.62;103179.78;5053636;28;20375;-73
2024/01/09 11:59:06;;;;;;;;;;;;;;;5.90;34.20;103197.25;5047817;28;20204;-75
2024/01/09 12:01:31;;;;;;;;;;;;;;;5.74;33.82;103195.66;5039510;28;19920;-78
2024/01/09 12:03:57;;;;;;;;;;;;;;;5.70;33.55;103185.91;5038818;28;19971;-75
2024/01/09 12:06:24;;;;;;;;;;;;;;;6.50;33.21;103181.69;5045203;28;20199;-74
2024/01/09 12:08:50;;;;;;;;;;;;;;;7.20;32.43;103166.28;5056315;28;19923;-78
2024/01/09 12:11:16;;;;;;;;;;;;;;;7.62;31.39;103155.72;5041163;28;19924;-80
2024/01/09 12:13:42;;;;;;;;;;;;;;;7.77;30.95;103171.06;5058071;28;19958;-75
2024/01/09 12:16:14;;;;;;;;;;;;;;;7.73;30.60;103161.31;5048335;28;19924;-75
2024/01/09 12:18:55;;;;;;;;;;;;;;;8.07;30.44;103146.91;5057034;28;19924;-75
2024/01/09 12:21:24;;;;;;;;;;;;;;;8.33;30.03;103146.09;5054409;28;19943;-78
2024/01/09 12:23:50;;;;;;;;;;;;;;;8.43;28.77;103151.63;5063176;28;19944;-79
2024/01/09 12:26:16;;;;;;;;;;;;;;;8.01;29.85;103146.69;5058214;28;19927;-76
2024/01/09 12:28:43;;;;;;;;;;;;;;;7.80;28.69;103140.75;5059745;28;19916;-75
2024/01/09 12:31:09;;;;;;;;;;;;;;;7.67;29.00;103138.53;5052951;28;20375;-80
2024/01/09 12:33:35;;;;;;;;;;;;;;;7.29;28.22;103125.78;5058257;28;19920;-77
2024/01/09 12:36:01;;;;;;;;;;;;;;;5.56;31.49;103141.09;5038831;28;19927;-75